KBTM

Bert Mooney Airport

Airport
ICAO code
KBTM
IATA Code
BTM
Summary
ICAO Region
NAM
ICAO Territory
Location

Butte, Montana

Serving
Butte
Elevation
5550 ft
Coordinates
45° 57' 17" N , 112° 29' 50" W
KCC
Airport CFIT
Altimeter Temperature Error Correction
Airport RE
Hot and High Operations
Airport WX
Mountain Waves
Metar
KBTM 152053Z AUTO 33015G22KT 10SM FEW035 SCT043 BKN090 13/03 A2982 RMK AO2 PK WND 01028/1955 SLP061 60000 T01280033 53020

Description

Bert Mooney Airport is a public use airport located 3 nm southeast of the central business district of Butte, a city in Silver Bow County, Montana, USA.

Airport map

Aerial View

SKYbrary Partners:

Safety knowledge contributed by: